Terminal Aerodrome Forecast
Issued by NWS

Home | Current Version | Previous Version | Text Only | Print | Product List | Glossary On
Versions: 1 2 3 4 5 6 7 8 9 10 11 12 13 14 15 16 17
000
FTUS46 KEKA 262326
TAFCEC
TAF
KCEC 262326Z 2700/2724 19008KT P6SM BKN009
     FM270200 18004KT 4SM BR OVC004
     FM270800 00000KT 1SM BR OVC002
     FM271200 00000KT 1/2SM FG OVC002
     FM271700 17006KT 2SM BR BKN002
     FM271900 19008KT P6SM BKN005=

USA.gov is the U.S. government's official web portal to all federal, state and local government web resources and services.